createdAt,value
2019-04-14T00:01:34.816Z,27.30
2019-04-14T00:04:22.606Z,29.37
2019-04-14T00:06:52.597Z,29.73
2019-04-14T00:09:22.742Z,34.10
2019-04-14T00:11:52.708Z,29.87
2019-04-14T00:14:22.924Z,30.33
2019-04-14T00:16:53.164Z,35.63
2019-04-14T00:19:23.831Z,27.87
2019-04-14T00:21:54.425Z,29.27
2019-04-14T00:24:25.651Z,27.60
2019-04-14T00:26:57.266Z,30.67
2019-04-14T00:29:30.634Z,30.50
2019-04-14T00:32:10.130Z,30.70
2019-04-14T00:35:06.570Z,29.90
2019-04-14T00:38:04.369Z,30.97
2019-04-14T00:40:53.902Z,27.83
2019-04-14T00:43:57.193Z,29.87
2019-04-14T00:46:51.713Z,29.70
2019-04-14T00:49:26.890Z,30.03
2019-04-14T00:52:03.527Z,30.63
2019-04-14T00:54:32.510Z,27.70
2019-04-14T00:57:03.145Z,26.50
2019-04-14T00:59:33.392Z,25.33
2019-04-14T01:02:03.461Z,27.13
2019-04-14T01:04:33.758Z,27.30
2019-04-14T01:07:04.286Z,25.57
2019-04-14T01:09:34.741Z,25.20
2019-04-14T01:12:04.188Z,26.47
2019-04-14T01:14:34.220Z,23.30
2019-04-14T01:17:04.776Z,23.27
2019-04-14T01:19:35.246Z,27.33
2019-04-14T01:22:05.363Z,25.30
2019-04-14T01:24:36.293Z,26.70
2019-04-14T01:27:08.022Z,23.27
2019-04-14T01:29:38.408Z,23.30
2019-04-14T01:32:08.825Z,26.53
2019-04-14T01:34:39.145Z,23.47
2019-04-14T01:37:09.391Z,26.03
2019-04-14T01:39:39.312Z,25.53
2019-04-14T01:42:09.537Z,23.80
2019-04-14T01:44:39.580Z,34.17
2019-04-14T01:47:09.467Z,29.17
2019-04-14T01:49:39.737Z,28.10
2019-04-14T01:52:27.447Z,28.03
2019-04-14T01:55:15.907Z,29.83
2019-04-14T01:58:05.304Z,28.50
2019-04-14T02:00:57.566Z,27.30
2019-04-14T02:03:28.108Z,28.13
2019-04-14T02:05:58.272Z,29.33
2019-04-14T02:08:28.423Z,29.10
2019-04-14T02:10:58.735Z,26.80
2019-04-14T02:13:28.954Z,27.03
2019-04-14T02:16:12.100Z,26.33
2019-04-14T02:18:29.810Z,27.43
2019-04-14T02:21:00.051Z,28.33
2019-04-14T02:23:30.212Z,24.40
2019-04-14T02:26:00.117Z,29.27
2019-04-14T02:28:30.933Z,25.10
2019-04-14T02:31:13.362Z,28.20
2019-04-14T02:34:00.786Z,29.70
2019-04-14T02:36:32.652Z,27.97
2019-04-14T02:44:09.147Z,25.53
2019-04-14T02:46:38.481Z,23.93
2019-04-14T02:51:33.515Z,29.00
2019-04-14T02:54:07.251Z,24.60
2019-04-14T02:56:58.956Z,28.20
2019-04-14T02:59:05.814Z,27.57
2019-04-14T03:01:42.282Z,27.60
2019-04-14T03:04:08.906Z,28.87
2019-04-14T03:06:44.513Z,30.60
2019-04-14T03:09:24.763Z,29.37
2019-04-14T03:14:17.073Z,27.70
2019-04-14T03:17:07.396Z,34.67
2019-04-14T03:19:46.539Z,29.67
2019-04-14T03:22:33.130Z,31.67
2019-04-14T03:25:03.067Z,27.50
2019-04-14T03:27:54.757Z,29.70
2019-04-14T03:33:18.381Z,28.97
2019-04-14T03:40:35.641Z,31.80
2019-04-14T03:45:46.761Z,28.90
2019-04-14T03:50:39.343Z,30.77
2019-04-14T03:55:55.348Z,29.10
2019-04-14T03:58:22.593Z,32.13
2019-04-14T04:00:53.218Z,33.67
2019-04-14T04:03:23.830Z,32.83
2019-04-14T04:05:54.246Z,34.33
2019-04-14T04:08:24.425Z,29.37
2019-04-14T04:10:55.418Z,29.43
2019-04-14T04:13:25.839Z,34.23
2019-04-14T04:15:58.308Z,32.63
2019-04-14T04:18:28.777Z,29.53
2019-04-14T04:21:16.275Z,33.97
2019-04-14T04:23:53.480Z,34.90
2019-04-14T04:26:34.272Z,35.13
2019-04-14T04:29:35.424Z,34.20
2019-04-14T04:32:14.253Z,33.67
2019-04-14T04:35:09.025Z,35.97
2019-04-14T04:38:00.890Z,37.23
2019-04-14T04:40:31.336Z,39.27
2019-04-14T04:43:01.260Z,38.23
2019-04-14T04:45:32.054Z,34.30
2019-04-14T04:48:02.402Z,37.80
2019-04-14T04:50:32.475Z,36.37
2019-04-14T04:53:02.690Z,35.20
2019-04-14T04:55:32.918Z,39.10
2019-04-14T04:58:03.415Z,38.17
2019-04-14T05:00:33.055Z,34.90
2019-04-14T05:03:04.390Z,36.80
2019-04-14T05:06:11.158Z,36.97
2019-04-14T05:08:52.270Z,38.50
2019-04-14T05:11:29.487Z,37.63
2019-04-14T05:14:02.233Z,37.77
2019-04-14T05:16:32.758Z,38.97
2019-04-14T05:19:14.037Z,37.00
2019-04-14T05:21:36.566Z,36.10
2019-04-14T05:24:07.189Z,41.20
2019-04-14T05:26:37.359Z,37.37
2019-04-14T05:29:07.788Z,36.17
2019-04-14T05:31:42.573Z,36.83
2019-04-14T05:34:13.589Z,37.47
2019-04-14T05:36:45.351Z,36.33
2019-04-14T05:39:15.643Z,40.50
2019-04-14T05:41:56.747Z,39.17
2019-04-14T05:44:36.442Z,41.23
2019-04-14T05:47:06.534Z,39.50
2019-04-14T05:49:44.207Z,38.27
2019-04-14T05:52:09.903Z,39.50
2019-04-14T05:55:02.467Z,39.17
2019-04-14T05:57:32.689Z,36.23
2019-04-14T06:00:03.733Z,34.90
2019-04-14T06:02:35.673Z,35.90
2019-04-14T06:05:09.063Z,31.73
2019-04-14T06:07:38.626Z,39.37
2019-04-14T06:10:13.685Z,38.67
2019-04-14T06:12:43.130Z,36.77
2019-04-14T06:15:23.603Z,36.33
2019-04-14T06:17:52.863Z,38.87
2019-04-14T06:20:22.681Z,41.33
2019-04-14T06:22:51.958Z,36.40
2019-04-14T06:28:41.975Z,38.67
2019-04-14T06:31:29.156Z,37.07
2019-04-14T06:34:02.979Z,38.30
2019-04-14T06:36:50.138Z,39.00
2019-04-14T06:39:22.726Z,40.03
2019-04-14T06:41:52.149Z,43.53
2019-04-14T06:44:21.412Z,40.30
2019-04-14T06:46:50.922Z,37.27
2019-04-14T06:49:20.213Z,37.57
2019-04-14T06:51:49.642Z,40.30
2019-04-14T06:54:18.898Z,36.73
2019-04-14T06:56:48.291Z,37.03
2019-04-14T06:59:17.643Z,39.57
2019-04-14T07:01:47.002Z,38.93
2019-04-14T07:04:16.234Z,38.17
2019-04-14T07:06:45.667Z,38.60
2019-04-14T07:09:14.943Z,36.87
2019-04-14T07:11:45.356Z,39.67
2019-04-14T07:14:14.603Z,41.30
2019-04-14T07:16:44.042Z,41.47
2019-04-14T07:19:13.486Z,39.47
2019-04-14T07:21:42.771Z,45.63
2019-04-14T07:24:12.549Z,39.23
2019-04-14T07:26:47.026Z,44.83
2019-04-14T07:29:16.556Z,40.47
2019-04-14T07:32:06.672Z,43.77
2019-04-14T07:37:49.250Z,43.53
2019-04-14T07:40:26.533Z,43.93
2019-04-14T07:43:13.637Z,43.70
2019-04-14T07:45:54.188Z,44.07
2019-04-14T07:48:36.926Z,40.50
2019-04-14T07:51:22.391Z,38.03
2019-04-14T07:53:56.763Z,39.27
2019-04-14T07:56:59.296Z,43.17
2019-04-14T07:59:49.955Z,38.93
2019-04-14T08:02:32.773Z,39.73
2019-04-14T08:05:07.424Z,42.07
2019-04-14T08:07:36.978Z,37.33
2019-04-14T08:10:09.170Z,43.10
2019-04-14T08:12:38.937Z,38.97
2019-04-14T08:15:08.598Z,37.37
2019-04-14T08:17:37.926Z,36.37
2019-04-14T08:20:07.929Z,37.33
2019-04-14T08:22:37.655Z,38.37
2019-04-14T08:25:07.167Z,38.43
2019-04-14T08:27:36.429Z,41.87
2019-04-14T08:30:07.079Z,38.07
2019-04-14T08:32:36.444Z,37.50
2019-04-14T08:35:06.128Z,41.97
2019-04-14T08:37:35.645Z,43.70
2019-04-14T08:40:05.986Z,41.40
2019-04-14T08:42:56.089Z,43.33
2019-04-14T08:45:44.735Z,47.73
2019-04-14T08:48:22.990Z,41.13
2019-04-14T08:51:09.522Z,40.40
2019-04-14T08:53:52.120Z,44.60
2019-04-14T08:56:29.340Z,43.83
2019-04-14T08:59:23.819Z,40.43
2019-04-14T09:01:59.569Z,48.83
2019-04-14T09:05:00.250Z,42.47
2019-04-14T09:07:33.348Z,52.47
2019-04-14T09:10:09.871Z,47.53
2019-04-14T09:12:40.725Z,48.63
2019-04-14T09:15:10.004Z,46.67
2019-04-14T09:17:39.373Z,52.53
2019-04-14T09:20:10.062Z,46.03
2019-04-14T09:22:41.644Z,48.37
2019-04-14T09:25:11.086Z,46.93
2019-04-14T09:27:42.003Z,52.17
2019-04-14T09:30:15.205Z,46.77
2019-04-14T09:32:45.478Z,51.13
2019-04-14T09:35:25.230Z,47.50
2019-04-14T09:37:52.285Z,53.17
2019-04-14T09:40:25.220Z,48.13
2019-04-14T09:43:00.407Z,49.00
2019-04-14T09:45:29.632Z,44.73
2019-04-14T09:48:01.513Z,49.07
2019-04-14T09:50:30.749Z,46.93
2019-04-14T09:53:07.024Z,47.70
2019-04-14T09:55:54.016Z,46.13
2019-04-14T09:58:43.304Z,39.10
2019-04-14T10:01:14.418Z,48.27
2019-04-14T10:03:51.392Z,41.33
2019-04-14T10:06:20.738Z,40.50
2019-04-14T10:08:50.230Z,41.03
2019-04-14T10:11:31.784Z,37.87
2019-04-14T10:14:01.310Z,36.53
2019-04-14T10:16:30.875Z,42.87
2019-04-14T10:19:00.234Z,39.13
2019-04-14T10:21:29.614Z,40.43
2019-04-14T10:23:59.945Z,39.50
2019-04-14T10:26:29.366Z,40.50
2019-04-14T10:28:58.718Z,38.00
2019-04-14T10:31:30.189Z,40.47
2019-04-14T10:33:59.595Z,38.13
2019-04-14T10:36:29.972Z,37.83
2019-04-14T10:39:00.009Z,39.83
2019-04-14T10:41:29.521Z,35.80
2019-04-14T10:43:58.863Z,37.17
2019-04-14T10:46:28.482Z,36.47
2019-04-14T10:48:59.178Z,36.87
2019-04-14T10:51:30.173Z,35.20
2019-04-14T10:53:59.985Z,41.77
2019-04-14T10:56:29.511Z,40.03
2019-04-14T10:58:58.801Z,37.00
2019-04-14T11:01:28.372Z,38.07
2019-04-14T11:03:59.737Z,39.47
2019-04-14T11:06:38.661Z,39.00
2019-04-14T11:09:13.008Z,39.20
2019-04-14T11:11:43.886Z,35.90
2019-04-14T11:14:13.446Z,42.10
2019-04-14T11:16:42.845Z,37.60
2019-04-14T11:19:12.205Z,36.53
2019-04-14T11:21:42.894Z,38.43
2019-04-14T11:24:16.003Z,37.90
2019-04-14T11:26:45.869Z,42.60
2019-04-14T11:29:15.449Z,39.10
2019-04-14T11:31:58.860Z,38.63
2019-04-14T11:34:38.134Z,38.80
2019-04-14T11:37:32.457Z,38.43
2019-04-14T11:40:02.595Z,41.50
2019-04-14T11:42:32.273Z,40.33
2019-04-14T11:45:01.798Z,48.03
2019-04-14T11:47:31.101Z,42.43
2019-04-14T11:50:00.727Z,41.17
2019-04-14T11:52:30.299Z,47.63
2019-04-14T11:54:59.697Z,48.23
2019-04-14T11:57:29.160Z,45.13
2019-04-14T12:00:16.355Z,44.13
2019-04-14T12:03:17.113Z,43.23
2019-04-14T12:06:04.463Z,44.13
2019-04-14T12:08:48.062Z,43.93
2019-04-14T12:11:17.503Z,45.20
2019-04-14T12:13:50.265Z,45.27
2019-04-14T12:16:19.798Z,45.80
2019-04-14T12:18:49.827Z,44.43
2019-04-14T12:21:19.126Z,44.47
2019-04-14T12:23:48.525Z,46.47
2019-04-14T12:26:17.958Z,48.37
2019-04-14T12:28:47.426Z,42.60
2019-04-14T12:31:17.434Z,49.20
2019-04-14T12:33:47.104Z,44.33
2019-04-14T12:36:16.792Z,47.87
2019-04-14T12:38:49.577Z,44.90
2019-04-14T12:41:24.556Z,47.43
2019-04-14T12:44:06.274Z,50.33
2019-04-14T12:46:54.645Z,43.67
2019-04-14T12:49:30.846Z,46.73
2019-04-14T12:52:23.698Z,45.60
2019-04-14T12:54:52.963Z,48.57
2019-04-14T12:57:41.618Z,44.97
2019-04-14T13:00:19.796Z,45.50
2019-04-14T13:02:50.639Z,49.47
2019-04-14T13:05:20.072Z,50.17
2019-04-14T13:07:49.327Z,52.37
2019-04-14T13:10:18.965Z,53.73
2019-04-14T13:12:48.274Z,49.30
2019-04-14T13:15:17.645Z,50.87
2019-04-14T13:17:47.266Z,52.00
2019-04-14T13:20:16.811Z,54.43
2019-04-14T13:22:48.838Z,53.70
2019-04-14T13:25:18.382Z,52.63
2019-04-14T13:27:48.649Z,56.03
2019-04-14T13:30:20.519Z,51.97
2019-04-14T13:32:49.862Z,58.97
2019-04-14T13:35:19.485Z,55.30
2019-04-14T13:37:48.795Z,54.97
2019-04-14T13:40:18.466Z,54.17
2019-04-14T13:42:48.973Z,54.73
2019-04-14T13:45:18.295Z,57.90
2019-04-14T13:47:47.606Z,57.27
2019-04-14T13:50:17.152Z,60.17
2019-04-14T13:52:47.456Z,58.30
2019-04-14T13:55:18.174Z,61.27
2019-04-14T13:57:47.422Z,56.30
2019-04-14T14:00:17.398Z,61.97
2019-04-14T14:02:47.105Z,56.97
2019-04-14T14:05:16.570Z,60.10
2019-04-14T14:07:46.829Z,63.53
2019-04-14T14:10:16.494Z,61.63
2019-04-14T14:12:53.683Z,60.47
2019-04-14T14:15:41.966Z,64.33
2019-04-14T14:18:28.941Z,66.20
2019-04-14T14:21:15.965Z,65.00
2019-04-14T14:24:01.541Z,61.87
2019-04-14T14:26:31.847Z,62.87
2019-04-14T14:29:01.183Z,66.97
2019-04-14T14:31:30.616Z,63.60
2019-04-14T14:34:00.049Z,68.13
2019-04-14T14:36:31.557Z,58.93
2019-04-14T14:39:00.862Z,69.07
2019-04-14T14:41:30.263Z,63.93
2019-04-14T14:43:59.547Z,83.10
2019-04-14T14:46:53.969Z,66.03
2019-04-14T14:49:51.279Z,69.43
2019-04-14T14:52:22.728Z,65.30
2019-04-14T14:54:51.979Z,62.47
2019-04-14T14:57:21.521Z,62.90
2019-04-14T14:59:50.883Z,62.30
2019-04-14T15:02:20.220Z,63.67
2019-04-14T15:04:50.062Z,63.83
2019-04-14T15:07:20.014Z,65.77
2019-04-14T15:09:49.282Z,61.03
2019-04-14T15:12:18.820Z,62.30
2019-04-14T15:14:48.239Z,65.40
2019-04-14T15:17:19.164Z,64.20
2019-04-14T15:19:48.873Z,59.87
2019-04-14T15:22:18.418Z,63.30
2019-04-14T15:24:47.744Z,65.97
2019-04-14T15:27:17.143Z,60.70
2019-04-14T15:29:46.474Z,58.70
2019-04-14T15:32:16.803Z,57.63
2019-04-14T15:34:46.081Z,61.10
2019-04-14T15:37:15.592Z,62.13
2019-04-14T15:39:45.068Z,62.90
2019-04-14T15:42:14.417Z,58.07
2019-04-14T15:44:43.880Z,62.40
2019-04-14T15:47:14.925Z,61.33
2019-04-14T15:49:49.795Z,66.57
2019-04-14T15:52:25.798Z,60.03
2019-04-14T15:54:57.917Z,67.23
2019-04-14T15:57:47.189Z,60.13
2019-04-14T16:00:37.632Z,65.13
2019-04-14T16:03:31.877Z,64.43
2019-04-14T16:06:34.912Z,62.93
2019-04-14T16:09:33.494Z,60.63
2019-04-14T16:12:23.743Z,65.37
2019-04-14T16:15:12.484Z,62.50
2019-04-14T16:17:47.849Z,64.60
2019-04-14T16:20:32.948Z,64.40
2019-04-14T16:23:18.550Z,63.50
2019-04-14T16:26:05.490Z,69.27
2019-04-14T16:28:48.962Z,61.37
2019-04-14T16:31:38.686Z,64.23
2019-04-14T16:34:32.129Z,62.17
2019-04-14T16:37:11.939Z,67.57
2019-04-14T16:39:45.238Z,59.70
2019-04-14T16:42:20.066Z,64.47
2019-04-14T16:44:51.644Z,66.23
2019-04-14T16:47:26.338Z,69.03
2019-04-14T16:50:00.345Z,67.23
2019-04-14T16:52:48.899Z,67.37
2019-04-14T16:55:29.797Z,64.37
2019-04-14T16:58:21.951Z,64.37
2019-04-14T17:01:02.682Z,64.00
2019-04-14T17:03:36.356Z,60.47
2019-04-14T17:06:08.045Z,63.20
2019-04-14T17:08:38.517Z,59.47
2019-04-14T17:11:09.711Z,63.33
2019-04-14T17:13:43.351Z,62.73
2019-04-14T17:16:36.708Z,67.17
2019-04-14T17:19:25.174Z,66.33
2019-04-14T17:22:12.852Z,64.13
2019-04-14T17:25:03.782Z,64.37
2019-04-14T17:28:00.637Z,71.43
2019-04-14T17:30:45.256Z,67.03
2019-04-14T17:33:39.996Z,67.00
2019-04-14T17:36:28.527Z,65.47
2019-04-14T17:39:20.423Z,66.67
2019-04-14T17:42:19.684Z,65.17
2019-04-14T17:45:16.772Z,71.57
2019-04-14T17:48:05.174Z,64.67
2019-04-14T17:51:04.050Z,65.23
2019-04-14T17:53:57.543Z,64.87
2019-04-14T17:56:58.090Z,69.17
2019-04-14T17:59:47.066Z,67.37
2019-04-14T18:02:38.843Z,68.80
2019-04-14T18:05:23.149Z,69.63
2019-04-14T18:08:08.826Z,71.77
2019-04-14T18:10:45.894Z,70.67
2019-04-14T18:13:46.170Z,71.90
2019-04-14T18:16:28.844Z,70.50
2019-04-14T18:19:10.623Z,70.97
2019-04-14T18:21:44.369Z,65.83
2019-04-14T18:24:15.027Z,73.77
2019-04-14T18:26:46.466Z,73.17
2019-04-14T18:29:55.112Z,72.60
2019-04-14T18:32:33.828Z,76.23
2019-04-14T18:35:21.797Z,73.27
2019-04-14T18:38:10.847Z,72.40
2019-04-14T18:40:59.297Z,72.80
2019-04-14T18:43:51.732Z,70.93
2019-04-14T18:46:39.431Z,71.97
2019-04-14T18:49:37.635Z,75.03
2019-04-14T18:52:51.504Z,71.90
2019-04-14T18:55:39.572Z,74.50
2019-04-14T18:58:33.279Z,72.60
2019-04-14T19:01:14.147Z,80.27
2019-04-14T19:03:46.761Z,78.87
2019-04-14T19:06:19.415Z,74.37
2019-04-14T19:09:06.556Z,77.80
2019-04-14T19:11:56.656Z,71.70
2019-04-14T19:14:39.738Z,75.73
2019-04-14T19:17:34.859Z,79.17
2019-04-14T19:20:07.042Z,77.80
2019-04-14T19:22:39.663Z,78.97
2019-04-14T19:25:10.981Z,76.67
2019-04-14T19:27:57.922Z,78.93
2019-04-14T19:30:27.859Z,75.17
2019-04-14T19:33:00.124Z,73.00
2019-04-14T19:35:31.256Z,82.63
2019-04-14T19:38:15.502Z,85.20
2019-04-14T19:40:56.335Z,84.23
2019-04-14T19:43:27.247Z,84.10
2019-04-14T19:45:58.475Z,82.13
2019-04-14T19:48:29.549Z,82.57
2019-04-14T19:51:02.126Z,85.73
2019-04-14T19:53:40.014Z,88.50
2019-04-14T19:56:16.707Z,90.63
2019-04-14T19:58:48.681Z,93.37
2019-04-14T20:01:22.026Z,89.80
2019-04-14T20:03:51.622Z,87.10
2019-04-14T20:06:28.047Z,89.30
2019-04-14T20:09:01.263Z,89.63
2019-04-14T20:11:38.143Z,100.87
2019-04-14T20:14:14.327Z,87.43
2019-04-14T20:17:06.036Z,91.57
2019-04-14T20:20:10.139Z,88.50
2019-04-14T20:23:02.748Z,85.87
2019-04-14T20:26:10.370Z,83.57
2019-04-14T20:28:55.646Z,91.33
2019-04-14T20:31:38.490Z,84.63
2019-04-14T20:34:12.781Z,84.73
2019-04-14T20:36:44.045Z,84.67
2019-04-14T20:39:19.935Z,85.83
2019-04-14T20:41:52.217Z,84.20
2019-04-14T20:44:23.854Z,88.57
2019-04-14T20:46:55.184Z,80.20
2019-04-14T20:49:25.449Z,79.40
2019-04-14T20:51:58.021Z,80.67
2019-04-14T20:54:28.894Z,78.13
2019-04-14T20:57:00.743Z,82.77
2019-04-14T20:59:30.391Z,85.03
2019-04-14T21:02:21.405Z,83.93
2019-04-14T21:05:09.290Z,84.83
2019-04-14T21:07:58.624Z,82.60
2019-04-14T21:10:41.457Z,81.57
2019-04-14T21:13:28.920Z,85.03
2019-04-14T21:16:16.753Z,81.77
2019-04-14T21:18:56.846Z,74.93
2019-04-14T21:21:34.589Z,84.77
2019-04-14T21:24:25.902Z,88.83
2019-04-14T21:27:17.013Z,78.07
2019-04-14T21:30:23.799Z,78.73
2019-04-14T21:32:58.426Z,75.43
2019-04-14T21:35:52.559Z,77.67
2019-04-14T21:38:46.005Z,74.80
2019-04-14T21:41:21.256Z,81.00
2019-04-14T21:43:51.054Z,84.47
2019-04-14T21:46:20.630Z,76.50
2019-04-14T21:48:49.961Z,76.50
2019-04-14T21:51:23.195Z,86.13
2019-04-14T21:53:53.301Z,79.30
2019-04-14T21:56:32.062Z,77.27
2019-04-14T21:59:14.328Z,79.50
2019-04-14T22:02:01.571Z,79.37
2019-04-14T22:05:08.338Z,79.57
2019-04-14T22:07:49.347Z,77.77
2019-04-14T22:10:33.199Z,79.77
2019-04-14T22:13:02.526Z,78.73
2019-04-14T22:15:34.129Z,79.53
2019-04-14T22:18:04.974Z,73.63
2019-04-14T22:20:34.502Z,74.63
2019-04-14T22:23:06.820Z,71.23
2019-04-14T22:25:36.910Z,72.00
2019-04-14T22:28:06.242Z,76.30
2019-04-14T22:30:36.876Z,73.90
2019-04-14T22:33:06.275Z,79.00
2019-04-14T22:35:35.762Z,70.50
2019-04-14T22:38:05.943Z,71.50
2019-04-14T22:40:35.377Z,68.50
2019-04-14T22:43:06.329Z,75.97
2019-04-14T22:45:35.975Z,75.53
2019-04-14T22:48:05.494Z,70.37
2019-04-14T22:50:34.827Z,77.10
2019-04-14T22:53:04.295Z,67.27
2019-04-14T22:55:34.971Z,75.37
2019-04-14T22:58:04.611Z,75.17
2019-04-14T23:00:44.354Z,66.03
2019-04-14T23:03:26.803Z,69.60
2019-04-14T23:06:04.592Z,69.93
2019-04-14T23:08:40.941Z,64.53
2019-04-14T23:11:34.249Z,66.87
2019-04-14T23:14:22.058Z,67.83
2019-04-14T23:17:18.017Z,69.07
2019-04-14T23:19:52.931Z,65.53
2019-04-14T23:22:45.359Z,64.67
2019-04-14T23:25:14.698Z,61.17
2019-04-14T23:27:44.085Z,65.20
2019-04-14T23:30:13.570Z,64.03
2019-04-14T23:32:43.694Z,62.77
2019-04-14T23:35:15.332Z,65.03
2019-04-14T23:37:44.701Z,69.03
2019-04-14T23:40:14.236Z,66.13
2019-04-14T23:42:43.612Z,63.23
2019-04-14T23:45:12.974Z,61.60
2019-04-14T23:47:42.427Z,68.63
2019-04-14T23:50:11.834Z,72.43
2019-04-14T23:52:41.218Z,67.93
2019-04-14T23:55:10.662Z,66.30
2019-04-14T23:57:40.094Z,66.23
